createdAt,value
2018-03-02T00:00:47.933Z,51.10
2018-03-02T00:08:23.207Z,51.30
2018-03-02T00:10:51.441Z,51.30
2018-03-02T00:13:20.428Z,51.20
2018-03-02T00:15:48.672Z,51.00
2018-03-02T00:18:17.677Z,51.10
2018-03-02T00:20:45.969Z,51.40
2018-03-02T00:23:14.217Z,51.30
2018-03-02T00:25:42.462Z,51.30
2018-03-02T00:28:14.280Z,51.50
2018-03-02T00:30:42.519Z,51.70
2018-03-02T00:33:12.273Z,51.50
2018-03-02T00:35:41.940Z,51.80
2018-03-02T00:38:10.569Z,51.90
2018-03-02T00:40:38.809Z,52.00
2018-03-02T00:43:08.044Z,52.50
2018-03-02T00:48:05.772Z,52.30
2018-03-02T00:53:05.182Z,52.20
2018-03-02T00:55:33.421Z,52.30
2018-03-02T00:58:03.479Z,52.50
2018-03-02T01:00:33.145Z,51.90
2018-03-02T01:03:02.145Z,52.20
2018-03-02T01:08:05.408Z,52.60
2018-03-02T01:10:34.786Z,52.60
2018-03-02T01:13:03.032Z,52.80
2018-03-02T01:15:32.447Z,52.80
2018-03-02T01:18:01.457Z,53.00
2018-03-02T01:20:30.457Z,53.20
2018-03-02T01:22:58.749Z,52.80
2018-03-02T01:25:26.991Z,53.00
2018-03-02T01:27:55.231Z,52.80
2018-03-02T01:30:24.031Z,53.00
2018-03-02T01:32:52.276Z,53.00
2018-03-02T01:37:50.036Z,53.00
2018-03-02T01:42:47.749Z,53.30
2018-03-02T01:45:17.555Z,53.10
2018-03-02T01:47:45.801Z,53.00
2018-03-02T01:50:14.809Z,53.40
2018-03-02T01:52:43.549Z,53.40
2018-03-02T01:55:12.932Z,53.00
2018-03-02T01:57:42.308Z,53.00
2018-03-02T02:00:10.610Z,53.40
2018-03-02T02:02:39.794Z,53.20
2018-03-02T02:05:08.424Z,53.50
2018-03-02T02:07:38.115Z,53.60
2018-03-02T02:10:07.116Z,53.70
2018-03-02T02:12:35.398Z,53.50
2018-03-02T02:15:03.896Z,53.80
2018-03-02T02:17:32.141Z,53.60
2018-03-02T02:20:00.381Z,53.60
2018-03-02T02:22:30.076Z,53.50
2018-03-02T02:24:58.352Z,53.60
2018-03-02T02:27:27.320Z,54.00
2018-03-02T02:29:55.974Z,53.60
2018-03-02T02:32:24.217Z,53.60
2018-03-02T02:34:52.867Z,53.50
2018-03-02T02:37:22.996Z,53.60
2018-03-02T02:39:52.153Z,53.60
2018-03-02T02:42:20.397Z,53.90
2018-03-02T02:44:49.329Z,54.00
2018-03-02T02:47:17.571Z,53.70
2018-03-02T02:49:46.228Z,54.10
2018-03-02T02:54:45.527Z,54.70
2018-03-02T02:57:14.900Z,54.10
2018-03-02T02:59:43.714Z,54.30
2018-03-02T03:02:11.967Z,54.30
2018-03-02T03:04:41.166Z,54.50
2018-03-02T03:07:09.468Z,54.40
2018-03-02T03:09:37.708Z,54.50
2018-03-02T03:12:05.956Z,54.10
2018-03-02T03:14:34.393Z,53.90
2018-03-02T03:17:03.791Z,53.90
2018-03-02T03:19:32.428Z,54.30
2018-03-02T03:22:00.995Z,54.40
2018-03-02T03:24:29.247Z,54.50
2018-03-02T03:26:58.263Z,55.20
2018-03-02T03:29:27.920Z,55.90
2018-03-02T03:31:56.159Z,55.00
2018-03-02T03:34:24.411Z,55.10
2018-03-02T03:36:53.744Z,55.70
2018-03-02T03:39:21.980Z,55.10
2018-03-02T03:41:50.620Z,55.40
2018-03-02T03:44:19.073Z,55.20
2018-03-02T03:46:47.313Z,55.30
2018-03-02T03:51:46.796Z,55.60
2018-03-02T03:54:15.431Z,55.30
2018-03-02T03:56:44.436Z,56.00
2018-03-02T03:59:14.513Z,56.30
2018-03-02T04:01:42.752Z,55.70
2018-03-02T04:04:11.006Z,55.60
2018-03-02T04:06:40.342Z,55.40
2018-03-02T04:09:08.584Z,55.30
2018-03-02T04:11:36.839Z,55.30
2018-03-02T04:14:05.222Z,55.50
2018-03-02T04:16:34.224Z,56.10
2018-03-02T04:19:02.456Z,55.90
2018-03-02T04:24:00.716Z,56.10
2018-03-02T04:26:28.956Z,56.10
2018-03-02T04:28:57.357Z,55.90
2018-03-02T04:31:25.611Z,55.90
2018-03-02T04:36:23.399Z,55.80
2018-03-02T04:38:51.631Z,55.80
2018-03-02T04:41:20.651Z,56.60
2018-03-02T04:43:49.522Z,56.20
2018-03-02T04:46:17.768Z,56.40
2018-03-02T04:53:50.776Z,56.10
2018-03-02T04:56:19.027Z,56.30
2018-03-02T04:58:47.259Z,56.70
2018-03-02T05:01:17.137Z,56.90
2018-03-02T05:03:45.369Z,56.80
2018-03-02T05:06:14.739Z,56.90
2018-03-02T05:08:43.363Z,56.80
2018-03-02T05:11:11.641Z,57.20
2018-03-02T05:13:39.844Z,57.40
2018-03-02T05:16:09.000Z,58.40
2018-03-02T05:18:37.254Z,57.40
2018-03-02T05:21:05.528Z,57.20
2018-03-02T05:23:34.853Z,57.30
2018-03-02T05:26:03.485Z,57.10
2018-03-02T05:28:32.125Z,57.60
2018-03-02T05:33:30.148Z,57.50
2018-03-02T05:35:59.892Z,57.60
2018-03-02T05:41:05.322Z,57.50
2018-03-02T05:43:33.561Z,57.60
2018-03-02T05:46:01.796Z,57.60
2018-03-02T05:48:32.921Z,57.50
2018-03-02T05:51:01.180Z,57.80
2018-03-02T05:55:58.917Z,58.00
2018-03-02T05:58:27.153Z,58.00
2018-03-02T06:00:55.396Z,57.70
2018-03-02T06:03:25.193Z,57.90
2018-03-02T06:05:53.431Z,58.00
2018-03-02T06:08:21.667Z,58.00
2018-03-02T06:10:52.808Z,57.80
2018-03-02T06:13:22.561Z,58.00
2018-03-02T06:15:50.800Z,57.60
2018-03-02T06:18:19.120Z,58.00
2018-03-02T06:20:47.757Z,58.00
2018-03-02T06:28:16.348Z,59.20
2018-03-02T06:33:14.666Z,58.70
2018-03-02T06:35:42.906Z,58.40
2018-03-02T06:40:40.844Z,58.30
2018-03-02T06:43:09.084Z,57.90
2018-03-02T06:45:37.320Z,57.80
2018-03-02T06:48:07.725Z,58.40
2018-03-02T06:50:35.961Z,58.90
2018-03-02T06:53:04.196Z,58.30
2018-03-02T06:55:33.523Z,58.70
2018-03-02T06:58:02.157Z,58.40
2018-03-02T07:00:30.393Z,58.60
2018-03-02T07:02:59.993Z,58.20
2018-03-02T07:05:28.229Z,57.80
2018-03-02T07:07:56.465Z,57.60
2018-03-02T07:10:26.388Z,57.00
2018-03-02T07:12:54.984Z,56.90
2018-03-02T07:15:23.289Z,57.10
2018-03-02T07:17:51.821Z,57.60
2018-03-02T07:20:20.460Z,57.40
2018-03-02T07:22:48.700Z,57.20
2018-03-02T07:25:18.624Z,56.80
2018-03-02T07:27:47.256Z,56.60
2018-03-02T07:30:15.893Z,56.50
2018-03-02T07:35:18.664Z,56.70
2018-03-02T07:37:46.896Z,56.30
2018-03-02T07:40:15.533Z,56.00
2018-03-02T07:42:44.080Z,55.30
2018-03-02T07:45:12.319Z,55.20
2018-03-02T07:47:40.553Z,55.00
2018-03-02T07:50:10.820Z,54.20
2018-03-02T07:52:40.559Z,53.40
2018-03-02T07:57:38.464Z,52.80
2018-03-02T08:00:06.692Z,52.80
2018-03-02T08:02:36.432Z,52.10
2018-03-02T08:10:04.875Z,51.50
2018-03-02T08:12:33.304Z,51.30
2018-03-02T08:15:07.727Z,51.00
2018-03-02T08:17:36.736Z,50.60
2018-03-02T08:20:04.974Z,49.80
2018-03-02T08:22:33.204Z,49.60
2018-03-02T08:25:03.416Z,50.20
2018-03-02T08:32:32.145Z,49.40
2018-03-02T08:37:29.837Z,48.20
2018-03-02T08:39:58.140Z,48.60
2018-03-02T08:42:26.376Z,46.10
2018-03-02T08:44:55.372Z,45.00
2018-03-02T08:47:23.913Z,44.10
2018-03-02T08:49:52.182Z,42.10
2018-03-02T08:52:21.144Z,41.50
2018-03-02T08:57:23.265Z,42.10
2018-03-02T08:59:51.505Z,41.50
2018-03-02T09:02:19.736Z,41.50
2018-03-02T09:04:48.587Z,41.90
2018-03-02T09:07:17.209Z,42.30
2018-03-02T09:09:45.448Z,41.00
2018-03-02T09:12:15.181Z,39.50
2018-03-02T09:14:43.411Z,39.10
2018-03-02T09:17:14.353Z,35.40
2018-03-02T09:19:42.825Z,35.20
2018-03-02T09:22:12.392Z,35.50
2018-03-02T09:24:40.629Z,36.30
2018-03-02T09:27:09.008Z,37.60
2018-03-02T09:29:37.244Z,38.70
2018-03-02T09:32:05.481Z,38.90
2018-03-02T09:37:09.000Z,39.60
2018-03-02T09:39:37.232Z,40.20
2018-03-02T09:42:05.471Z,39.50
2018-03-02T09:44:33.865Z,40.00
2018-03-02T09:47:02.092Z,38.80
2018-03-02T09:49:31.103Z,38.50
2018-03-02T09:52:02.414Z,38.60
2018-03-02T09:54:30.649Z,38.70
2018-03-02T09:56:59.288Z,38.10
2018-03-02T09:59:27.928Z,38.10
2018-03-02T10:01:56.169Z,38.40
2018-03-02T10:04:24.828Z,38.50
2018-03-02T10:06:54.473Z,38.10
2018-03-02T10:09:22.707Z,37.70
2018-03-02T10:14:22.440Z,35.50
2018-03-02T10:16:51.447Z,34.60
2018-03-02T10:19:20.008Z,35.50
2018-03-02T10:21:48.375Z,35.90
2018-03-02T10:24:17.380Z,35.40
2018-03-02T10:26:46.809Z,36.50
2018-03-02T10:29:16.808Z,37.00
2018-03-02T10:31:45.041Z,37.70
2018-03-02T10:34:13.278Z,37.10
2018-03-02T10:36:41.652Z,37.30
2018-03-02T10:39:09.879Z,36.30
2018-03-02T10:41:38.163Z,35.10
2018-03-02T10:44:06.780Z,34.00
2018-03-02T10:46:35.781Z,34.50
2018-03-02T10:49:04.408Z,33.50
2018-03-02T10:54:02.244Z,35.80
2018-03-02T10:56:31.240Z,35.80
2018-03-02T10:59:00.588Z,35.90
2018-03-02T11:01:30.328Z,35.70
2018-03-02T11:04:01.814Z,33.60
2018-03-02T11:06:30.437Z,32.10
2018-03-02T11:08:58.684Z,30.80
2018-03-02T11:11:27.544Z,30.40
2018-03-02T11:13:55.784Z,30.40
2018-03-02T11:16:24.029Z,30.50
2018-03-02T11:18:54.413Z,32.20
2018-03-02T11:21:23.339Z,32.40
2018-03-02T11:28:03.521Z,33.10
2018-03-02T11:30:32.149Z,33.90
2018-03-02T11:35:30.970Z,34.10
2018-03-02T11:37:59.952Z,34.70
2018-03-02T11:42:58.657Z,35.00
2018-03-02T11:45:26.893Z,34.60
2018-03-02T11:47:57.440Z,34.40
2018-03-02T11:50:26.437Z,34.90
2018-03-02T11:52:54.676Z,34.50
2018-03-02T11:55:23.271Z,35.10
2018-03-02T12:00:20.965Z,35.70
2018-03-02T12:02:50.044Z,35.80
2018-03-02T12:05:18.276Z,35.00
2018-03-02T12:07:47.273Z,35.40
2018-03-02T12:15:14.580Z,35.10
2018-03-02T12:17:43.696Z,36.00
2018-03-02T12:20:12.317Z,35.50
2018-03-02T12:22:49.283Z,35.70
2018-03-02T12:25:18.645Z,36.20
2018-03-02T12:27:47.272Z,36.30
2018-03-02T12:30:17.208Z,36.00
2018-03-02T12:32:46.571Z,35.70
2018-03-02T12:35:15.568Z,36.50
2018-03-02T12:37:45.454Z,36.40
2018-03-02T12:40:13.688Z,36.70
2018-03-02T12:42:42.683Z,36.60
2018-03-02T12:45:12.152Z,36.20
2018-03-02T12:47:41.148Z,35.90
2018-03-02T12:50:09.385Z,36.20
2018-03-02T12:52:38.696Z,36.10
2018-03-02T12:55:07.349Z,36.30
2018-03-02T12:57:35.556Z,35.90
2018-03-02T13:00:04.151Z,36.80
2018-03-02T13:02:33.857Z,36.80
2018-03-02T13:05:02.853Z,36.90
2018-03-02T13:07:32.364Z,37.10
2018-03-02T13:10:00.600Z,37.60
2018-03-02T13:12:28.843Z,37.90
2018-03-02T13:17:32.181Z,37.70
2018-03-02T13:20:00.420Z,37.90
2018-03-02T13:22:41.248Z,38.10
2018-03-02T13:25:10.934Z,38.10
2018-03-02T13:27:51.999Z,37.80
2018-03-02T13:30:21.008Z,38.50
2018-03-02T13:33:02.233Z,39.20
2018-03-02T13:35:30.468Z,38.80
2018-03-02T13:37:59.468Z,39.30
2018-03-02T13:40:40.137Z,39.50
2018-03-02T13:43:09.514Z,39.30
2018-03-02T13:45:37.752Z,39.30
2018-03-02T13:50:54.456Z,40.10
2018-03-02T13:53:22.688Z,40.40
2018-03-02T13:55:51.079Z,41.10
2018-03-02T13:58:20.449Z,40.90
2018-03-02T14:00:48.691Z,40.90
2018-03-02T14:03:29.484Z,41.10
2018-03-02T14:05:57.717Z,41.50
2018-03-02T14:08:27.095Z,42.00
2018-03-02T14:10:55.464Z,42.00
2018-03-02T14:13:23.700Z,41.90
2018-03-02T14:15:53.427Z,41.70
2018-03-02T14:18:22.419Z,42.40
2018-03-02T14:20:51.052Z,42.30
2018-03-02T14:23:19.285Z,41.80
2018-03-02T14:25:51.053Z,42.50
2018-03-02T14:28:19.676Z,42.40
2018-03-02T14:30:48.802Z,43.10
2018-03-02T14:33:18.821Z,42.70
2018-03-02T14:35:48.560Z,42.60
2018-03-02T14:38:18.700Z,42.50
2018-03-02T14:40:47.333Z,42.90
2018-03-02T14:43:16.332Z,42.70
2018-03-02T14:45:45.590Z,42.90
2018-03-02T14:48:14.220Z,42.80
2018-03-02T14:50:43.266Z,43.10
2018-03-02T14:53:14.737Z,42.70
2018-03-02T14:55:42.968Z,42.80
2018-03-02T15:00:42.462Z,42.90
2018-03-02T15:03:11.088Z,42.90
2018-03-02T15:05:39.320Z,43.10
2018-03-02T15:08:07.872Z,43.10
2018-03-02T15:10:37.249Z,42.90
2018-03-02T15:13:05.476Z,43.20
2018-03-02T15:15:34.629Z,42.90
2018-03-02T15:18:02.876Z,42.80
2018-03-02T15:20:32.253Z,42.50
2018-03-02T15:28:06.535Z,43.00
2018-03-02T15:30:34.764Z,43.10
2018-03-02T15:33:03.605Z,42.70
2018-03-02T15:35:32.613Z,42.80
2018-03-02T15:38:01.264Z,42.80
2018-03-02T15:40:32.035Z,42.70
2018-03-02T15:43:00.664Z,43.10
2018-03-02T15:45:29.296Z,42.80
2018-03-02T15:47:57.673Z,43.10
2018-03-02T15:50:25.908Z,43.60
2018-03-02T15:52:55.280Z,43.60
2018-03-02T15:55:23.864Z,43.70
2018-03-02T15:57:52.496Z,43.50
2018-03-02T16:00:20.736Z,43.30
2018-03-02T16:02:49.130Z,43.50
2018-03-02T16:05:17.772Z,43.80
2018-03-02T16:07:46.000Z,44.30
2018-03-02T16:10:15.736Z,44.90
2018-03-02T16:12:44.373Z,44.40
2018-03-02T16:15:12.606Z,44.20
2018-03-02T16:17:40.989Z,44.30
2018-03-02T16:20:09.252Z,44.50
2018-03-02T16:22:38.638Z,44.90
2018-03-02T16:27:37.265Z,44.50
2018-03-02T16:30:09.512Z,44.80
2018-03-02T16:32:37.774Z,44.80
2018-03-02T16:35:08.957Z,44.80
2018-03-02T16:37:39.101Z,45.50
2018-03-02T16:40:08.100Z,45.40
2018-03-02T16:42:36.337Z,45.20
2018-03-02T16:45:04.845Z,45.20
2018-03-02T16:47:33.853Z,45.20
2018-03-02T16:50:02.476Z,46.00
2018-03-02T16:52:32.534Z,45.90
2018-03-02T16:55:00.776Z,46.10
2018-03-02T16:57:29.009Z,46.00
2018-03-02T16:59:58.653Z,46.10
2018-03-02T17:02:26.886Z,46.40
2018-03-02T17:04:55.143Z,46.40
2018-03-02T17:07:24.593Z,46.70
2018-03-02T17:09:52.915Z,46.60
2018-03-02T17:12:21.192Z,46.40
2018-03-02T17:14:53.107Z,46.70
2018-03-02T17:17:22.108Z,47.00
2018-03-02T17:19:50.345Z,46.70
2018-03-02T17:22:19.872Z,47.10
2018-03-02T17:24:49.614Z,47.00
2018-03-02T17:27:17.844Z,47.20
2018-03-02T17:29:46.224Z,47.30
2018-03-02T17:32:15.175Z,47.30
2018-03-02T17:34:44.537Z,47.50
2018-03-02T17:37:13.097Z,47.20
2018-03-02T17:39:42.105Z,47.30
2018-03-02T17:42:11.177Z,47.60
2018-03-02T17:47:13.509Z,47.30
2018-03-02T17:49:42.543Z,47.50
2018-03-02T17:52:11.531Z,48.10
2018-03-02T17:54:42.134Z,47.80
2018-03-02T17:57:10.764Z,47.80
2018-03-02T17:59:39.005Z,47.90
2018-03-02T18:02:07.676Z,48.40
2018-03-02T18:04:35.945Z,48.20
2018-03-02T18:07:04.225Z,48.00
2018-03-02T18:09:34.183Z,48.40
2018-03-02T18:12:02.465Z,48.10
2018-03-02T18:14:30.739Z,48.40
2018-03-02T18:17:00.470Z,48.50
2018-03-02T18:19:30.213Z,48.40
2018-03-02T18:21:58.473Z,48.60
2018-03-02T18:24:27.036Z,48.50
2018-03-02T18:26:55.264Z,48.40
2018-03-02T18:29:23.498Z,48.70
2018-03-02T18:31:53.545Z,48.90
2018-03-02T18:34:22.764Z,48.90
2018-03-02T18:36:51.006Z,49.00
2018-03-02T18:39:20.502Z,49.00
2018-03-02T18:41:49.459Z,49.10
2018-03-02T18:44:18.084Z,48.50
2018-03-02T18:46:48.349Z,48.90
2018-03-02T18:51:46.032Z,48.80
2018-03-02T18:54:14.408Z,48.80
2018-03-02T18:56:43.418Z,49.20
2018-03-02T18:59:11.651Z,49.10
2018-03-02T19:04:14.594Z,49.40
2018-03-02T19:06:42.821Z,49.40
2018-03-02T19:09:11.052Z,49.30
2018-03-02T19:11:39.420Z,49.60
2018-03-02T19:14:08.098Z,49.60
2018-03-02T19:16:36.285Z,49.50
2018-03-02T19:19:04.593Z,49.60
2018-03-02T19:21:33.220Z,49.80
2018-03-02T19:24:01.453Z,50.40
2018-03-02T19:29:06.545Z,51.10
2018-03-02T19:34:05.744Z,56.30
2018-03-02T19:36:39.256Z,59.10
2018-03-02T19:39:07.880Z,61.90
2018-03-02T19:41:37.616Z,63.60
2018-03-02T19:44:09.000Z,66.10
2018-03-02T19:46:37.625Z,66.90
2018-03-02T19:49:05.860Z,67.90
2018-03-02T19:51:34.443Z,70.20
2018-03-02T19:54:04.178Z,71.10
2018-03-02T19:56:32.805Z,71.70
2018-03-02T20:01:32.383Z,73.90
2018-03-02T20:06:30.825Z,76.40
2018-03-02T20:08:59.040Z,76.30
2018-03-02T20:11:34.219Z,77.30
2018-03-02T20:14:03.216Z,78.50
2018-03-02T20:16:31.436Z,78.50
2018-03-02T20:19:00.112Z,79.50
2018-03-02T20:21:29.108Z,79.80
2018-03-02T20:23:57.332Z,79.40
2018-03-02T20:26:27.479Z,79.60
2018-03-02T20:28:56.471Z,79.20
2018-03-02T20:31:24.692Z,78.00
2018-03-02T20:33:54.231Z,78.20
2018-03-02T20:36:23.964Z,76.20
2018-03-02T20:38:52.979Z,77.50
2018-03-02T20:43:51.332Z,73.20
2018-03-02T20:46:20.325Z,74.00
2018-03-02T20:48:48.669Z,73.00
2018-03-02T20:51:16.904Z,73.00
2018-03-02T20:53:45.128Z,73.20
2018-03-02T21:01:23.120Z,75.60
2018-03-02T21:03:51.344Z,76.30
2018-03-02T21:06:19.580Z,75.90
2018-03-02T21:08:49.728Z,78.10
2018-03-02T21:11:18.716Z,80.20
2018-03-02T21:13:47.709Z,80.30
2018-03-02T21:16:16.963Z,81.50
2018-03-02T21:18:45.958Z,83.80
2018-03-02T21:21:14.189Z,86.10
2018-03-02T21:23:42.561Z,88.70
2018-03-02T21:26:12.304Z,91.20
2018-03-02T21:28:40.540Z,93.10
2018-03-02T21:31:09.984Z,95.40
2018-03-02T21:33:38.977Z,98.40
2018-03-02T21:36:07.211Z,99.90
2018-03-02T21:38:36.308Z,99.90
2018-03-02T21:41:06.096Z,99.90
2018-03-02T21:43:35.464Z,99.90
2018-03-02T21:46:03.848Z,99.90
2018-03-02T21:48:32.081Z,99.90
2018-03-02T21:51:01.792Z,99.90
2018-03-02T21:53:31.060Z,99.90
2018-03-02T21:56:00.056Z,99.90
2018-03-02T21:58:28.293Z,99.90
2018-03-02T22:00:56.891Z,99.90
2018-03-02T22:03:25.881Z,99.90
2018-03-02T22:05:54.112Z,99.90
2018-03-02T22:08:23.636Z,99.90
2018-03-02T22:10:52.632Z,99.90
2018-03-02T22:13:20.860Z,99.90
2018-03-02T22:15:50.520Z,99.90
2018-03-02T22:18:18.752Z,99.90
2018-03-02T22:20:46.980Z,99.90
2018-03-02T22:23:16.304Z,99.90
2018-03-02T22:25:44.928Z,99.90
2018-03-02T22:28:13.923Z,99.90
2018-03-02T22:30:42.336Z,99.90
2018-03-02T22:33:10.933Z,99.90
2018-03-02T22:35:39.165Z,99.90
2018-03-02T22:40:38.423Z,99.90
2018-03-02T22:43:10.001Z,99.90
2018-03-02T22:45:38.996Z,99.90
2018-03-02T22:48:08.000Z,99.90
2018-03-02T22:50:36.456Z,99.90
2018-03-02T22:53:06.192Z,99.90
2018-03-02T22:55:35.189Z,99.90
2018-03-02T22:58:04.412Z,99.90
2018-03-02T23:00:33.404Z,99.90
2018-03-02T23:03:01.629Z,99.90
2018-03-02T23:05:31.436Z,99.90
2018-03-02T23:07:59.666Z,99.90
2018-03-02T23:10:27.897Z,99.90
2018-03-02T23:12:57.124Z,99.90
2018-03-02T23:15:26.124Z,99.90
2018-03-02T23:17:55.120Z,99.90
2018-03-02T23:20:23.489Z,99.90
2018-03-02T23:22:51.716Z,99.90
2018-03-02T23:25:19.949Z,99.90
2018-03-02T23:27:48.889Z,99.90
2018-03-02T23:32:47.713Z,99.90
2018-03-02T23:35:16.557Z,99.90
2018-03-02T23:37:45.920Z,99.90
2018-03-02T23:40:14.553Z,99.90
2018-03-02T23:42:42.965Z,99.90
2018-03-02T23:47:47.892Z,99.90
2018-03-02T23:50:17.258Z,99.90
2018-03-02T23:52:46.619Z,99.90
2018-03-02T23:55:14.929Z,99.90
2018-03-02T23:57:43.165Z,99.90
